createdAt,value
2019-05-26T00:00:57.754Z,10.2
2019-05-26T00:02:04.959Z,10.2
2019-05-26T00:03:12.160Z,10.2
2019-05-26T00:04:19.365Z,10.2
2019-05-26T00:05:26.571Z,10.2
2019-05-26T00:06:33.507Z,10.1
2019-05-26T00:07:40.728Z,10.1
2019-05-26T00:08:47.665Z,10.1
2019-05-26T00:09:54.874Z,10
2019-05-26T00:11:02.077Z,10
2019-05-26T00:12:09.059Z,10
2019-05-26T00:13:16.263Z,10
2019-05-26T00:14:23.469Z,10
2019-05-26T00:15:30.396Z,10
2019-05-26T00:16:37.597Z,10
2019-05-26T00:17:44.797Z,9.9
2019-05-26T00:18:51.999Z,9.9
2019-05-26T00:19:59.199Z,9.9
2019-05-26T00:21:06.396Z,9.9
2019-05-26T00:22:13.604Z,9.8
2019-05-26T00:23:20.535Z,9.8
2019-05-26T00:24:27.739Z,9.8
2019-05-26T00:25:34.944Z,9.8
2019-05-26T00:26:42.156Z,9.8
2019-05-26T00:27:49.366Z,9.8
2019-05-26T00:28:56.571Z,9.8
2019-05-26T00:30:03.775Z,9.8
2019-05-26T00:31:10.707Z,9.8
2019-05-26T00:32:17.908Z,9.8
2019-05-26T00:33:25.112Z,9.8
2019-05-26T00:34:32.324Z,9.7
2019-05-26T00:35:39.254Z,9.7
2019-05-26T00:36:46.465Z,9.7
2019-05-26T00:37:53.672Z,9.6
2019-05-26T00:39:00.899Z,9.6
2019-05-26T00:40:08.123Z,9.6
2019-05-26T00:41:15.391Z,9.6
2019-05-26T00:42:22.602Z,9.5
2019-05-26T00:43:29.808Z,9.5
2019-05-26T00:44:36.734Z,9.5
2019-05-26T00:45:43.939Z,9.6
2019-05-26T00:46:51.171Z,9.5
2019-05-26T00:47:58.377Z,9.5
2019-05-26T00:49:05.579Z,9.5
2019-05-26T00:50:12.786Z,9.5
2019-05-26T00:51:19.993Z,9.5
2019-05-26T00:52:27.214Z,9.5
2019-05-26T00:53:34.416Z,9.5
2019-05-26T00:54:41.344Z,9.5
2019-05-26T00:55:48.544Z,9.5
2019-05-26T00:56:55.742Z,9.5
2019-05-26T00:58:02.958Z,9.5
2019-05-26T00:59:09.878Z,9.5
2019-05-26T01:00:17.083Z,9.5
2019-05-26T01:01:24.281Z,9.5
2019-05-26T01:02:31.486Z,9.5
2019-05-26T01:03:38.418Z,9.4
2019-05-26T01:04:45.619Z,9.4
2019-05-26T01:05:52.819Z,9.4
2019-05-26T01:07:00.021Z,9.3
2019-05-26T01:08:07.579Z,9.3
2019-05-26T01:09:14.785Z,9.3
2019-05-26T01:10:21.714Z,9.3
2019-05-26T01:11:28.916Z,9.3
2019-05-26T01:12:36.121Z,9.3
2019-05-26T01:13:43.111Z,9.3
2019-05-26T01:14:50.052Z,9.2
2019-05-26T01:15:57.255Z,9.2
2019-05-26T01:17:03.916Z,9.2
2019-05-26T01:18:10.844Z,9.2
2019-05-26T01:19:18.071Z,9.1
2019-05-26T01:20:25.258Z,9.1
2019-05-26T01:21:32.458Z,9.1
2019-05-26T01:22:39.665Z,9.2
2019-05-26T01:23:47.071Z,9.2
2019-05-26T01:24:54.273Z,9.2
2019-05-26T01:26:01.490Z,9.1
2019-05-26T01:27:08.720Z,9.2
2019-05-26T01:28:15.928Z,9.2
2019-05-26T01:29:23.123Z,9.2
2019-05-26T01:30:30.045Z,9.1
2019-05-26T01:31:37.247Z,9.1
2019-05-26T01:32:44.447Z,9
2019-05-26T01:33:51.651Z,9
2019-05-26T01:34:58.849Z,9
2019-05-26T01:36:06.056Z,9
2019-05-26T01:37:13.272Z,9
2019-05-26T01:38:24.808Z,9
2019-05-26T01:39:31.995Z,9
2019-05-26T01:40:38.646Z,9
2019-05-26T01:41:45.850Z,9
2019-05-26T01:42:53.051Z,8.9
2019-05-26T01:43:59.981Z,8.9
2019-05-26T01:45:07.185Z,8.9
2019-05-26T01:46:14.381Z,8.9
2019-05-26T01:47:21.586Z,8.9
2019-05-26T01:48:28.814Z,8.9
2019-05-26T01:49:36.018Z,8.9
2019-05-26T01:50:43.222Z,8.8
2019-05-26T01:51:50.425Z,8.8
2019-05-26T01:52:57.632Z,8.7
2019-05-26T01:54:04.841Z,8.7
2019-05-26T01:55:12.044Z,8.7
2019-05-26T01:56:19.252Z,8.7
2019-05-26T01:57:26.454Z,8.7
2019-05-26T01:58:33.653Z,8.7
2019-05-26T01:59:40.901Z,8.7
2019-05-26T02:00:47.829Z,8.7
2019-05-26T02:01:59.011Z,8.7
2019-05-26T02:03:06.597Z,8.7
2019-05-26T02:04:13.825Z,8.7
2019-05-26T02:05:21.029Z,8.6
2019-05-26T02:06:28.431Z,8.6
2019-05-26T02:07:35.356Z,8.6
2019-05-26T02:08:42.601Z,8.6
2019-05-26T02:09:49.800Z,8.6
2019-05-26T02:10:56.998Z,8.5
2019-05-26T02:12:04.004Z,8.5
2019-05-26T02:13:11.208Z,8.5
2019-05-26T02:14:18.410Z,8.5
2019-05-26T02:15:25.611Z,8.6
2019-05-26T02:16:32.262Z,8.6
2019-05-26T02:17:39.468Z,8.6
2019-05-26T02:18:46.400Z,8.6
2019-05-26T02:19:53.596Z,8.6
2019-05-26T02:21:00.803Z,8.6
2019-05-26T02:22:08.004Z,8.6
2019-05-26T02:23:15.207Z,8.6
2019-05-26T02:24:22.405Z,8.6
2019-05-26T02:25:29.063Z,8.6
2019-05-26T02:26:36.000Z,8.6
2019-05-26T02:27:42.928Z,8.6
2019-05-26T02:28:50.138Z,8.6
2019-05-26T02:29:57.070Z,8.6
2019-05-26T02:31:04.266Z,8.6
2019-05-26T02:32:11.486Z,8.6
2019-05-26T02:33:18.684Z,8.6
2019-05-26T02:34:25.883Z,8.6
2019-05-26T02:35:33.088Z,8.6
2019-05-26T02:36:40.310Z,8.6
2019-05-26T02:37:47.505Z,8.6
2019-05-26T02:39:03.564Z,8.6
2019-05-26T02:40:10.316Z,8.6
2019-05-26T02:41:17.516Z,8.6
2019-05-26T02:42:24.716Z,8.5
2019-05-26T02:43:31.945Z,8.5
2019-05-26T02:44:39.145Z,8.5
2019-05-26T02:45:46.350Z,8.5
2019-05-26T02:46:53.558Z,8.5
2019-05-26T02:48:00.754Z,8.5
2019-05-26T02:49:07.688Z,8.6
2019-05-26T02:50:14.896Z,8.6
2019-05-26T02:51:21.819Z,8.6
2019-05-26T02:52:28.749Z,8.7
2019-05-26T02:53:36.036Z,8.7
2019-05-26T02:54:43.236Z,8.7
2019-05-26T02:55:50.440Z,8.8
2019-05-26T02:56:57.663Z,8.8
2019-05-26T02:58:04.858Z,8.8
2019-05-26T02:59:11.790Z,8.8
2019-05-26T03:00:18.989Z,8.9
2019-05-26T03:01:26.196Z,8.9
2019-05-26T03:02:33.387Z,8.9
2019-05-26T03:03:40.594Z,8.9
2019-05-26T03:04:48.211Z,8.9
2019-05-26T03:05:55.416Z,8.9
2019-05-26T03:07:02.718Z,8.9
2019-05-26T03:08:09.919Z,8.9
2019-05-26T03:09:24.059Z,8.9
2019-05-26T03:10:31.354Z,8.9
2019-05-26T03:11:38.557Z,8.9
2019-05-26T03:12:45.755Z,8.9
2019-05-26T03:13:52.954Z,8.9
2019-05-26T03:15:00.154Z,8.9
2019-05-26T03:16:07.094Z,8.9
2019-05-26T03:17:14.297Z,8.8
2019-05-26T03:18:21.230Z,8.8
2019-05-26T03:19:28.441Z,8.8
2019-05-26T03:20:35.640Z,8.8
2019-05-26T03:21:42.844Z,8.8
2019-05-26T03:22:50.044Z,8.9
2019-05-26T03:23:57.249Z,8.8
2019-05-26T03:25:04.181Z,8.8
2019-05-26T03:26:11.382Z,8.8
2019-05-26T03:27:18.588Z,8.8
2019-05-26T03:28:25.790Z,8.8
2019-05-26T03:29:32.718Z,8.8
2019-05-26T03:30:39.663Z,8.8
2019-05-26T03:31:46.896Z,8.8
2019-05-26T03:32:54.137Z,8.8
2019-05-26T03:34:01.629Z,8.7
2019-05-26T03:35:08.870Z,8.7
2019-05-26T03:36:16.239Z,8.7
2019-05-26T03:37:23.436Z,8.7
2019-05-26T03:38:30.636Z,8.7
2019-05-26T03:39:46.732Z,8.7
2019-05-26T03:40:54.046Z,8.7
2019-05-26T03:42:01.249Z,8.7
2019-05-26T03:43:08.444Z,8.7
2019-05-26T03:44:15.646Z,8.7
2019-05-26T03:45:22.845Z,8.7
2019-05-26T03:46:30.046Z,8.7
2019-05-26T03:47:36.981Z,8.7
2019-05-26T03:48:44.285Z,8.7
2019-05-26T03:49:51.485Z,8.7
2019-05-26T03:50:58.695Z,8.7
2019-05-26T03:52:05.893Z,8.7
2019-05-26T03:53:12.829Z,8.7
2019-05-26T03:54:20.032Z,8.7
2019-05-26T03:55:27.229Z,8.7
2019-05-26T03:56:34.156Z,8.6
2019-05-26T03:57:41.355Z,8.6
2019-05-26T03:58:48.565Z,8.6
2019-05-26T03:59:55.769Z,8.6
2019-05-26T04:01:02.979Z,8.6
2019-05-26T04:02:09.933Z,8.6
2019-05-26T04:03:17.218Z,8.6
2019-05-26T04:04:24.423Z,8.6
2019-05-26T04:05:31.359Z,8.6
2019-05-26T04:06:38.287Z,8.7
2019-05-26T04:07:45.487Z,8.7
2019-05-26T04:08:52.716Z,8.7
2019-05-26T04:10:06.587Z,8.6
2019-05-26T04:11:13.852Z,8.7
2019-05-26T04:12:21.054Z,8.7
2019-05-26T04:13:28.260Z,8.7
2019-05-26T04:14:35.465Z,8.7
2019-05-26T04:15:42.671Z,8.7
2019-05-26T04:16:49.875Z,8.7
2019-05-26T04:17:57.076Z,8.7
2019-05-26T04:19:04.010Z,8.7
2019-05-26T04:20:11.216Z,8.7
2019-05-26T04:21:18.418Z,8.7
2019-05-26T04:22:25.635Z,8.7
2019-05-26T04:23:32.886Z,8.7
2019-05-26T04:24:40.187Z,8.8
2019-05-26T04:25:47.112Z,8.8
2019-05-26T04:26:54.314Z,8.8
2019-05-26T04:28:01.517Z,8.8
2019-05-26T04:29:08.723Z,8.8
2019-05-26T04:30:15.642Z,8.8
2019-05-26T04:31:22.850Z,8.9
2019-05-26T04:32:30.064Z,8.9
2019-05-26T04:33:37.278Z,8.9
2019-05-26T04:34:44.485Z,9
2019-05-26T04:35:51.411Z,9
2019-05-26T04:36:58.611Z,9
2019-05-26T04:38:05.270Z,9
2019-05-26T04:39:12.472Z,9
2019-05-26T04:40:28.360Z,9
2019-05-26T04:41:35.851Z,9.1
2019-05-26T04:42:43.055Z,9.1
2019-05-26T04:43:49.982Z,9.1
2019-05-26T04:44:57.197Z,9.1
2019-05-26T04:46:04.521Z,9.2
2019-05-26T04:47:11.738Z,9.2
2019-05-26T04:48:18.739Z,9.2
2019-05-26T04:49:25.948Z,9.2
2019-05-26T04:50:33.165Z,9.3
2019-05-26T04:51:40.086Z,9.3
2019-05-26T04:53:07.322Z,9.3
2019-05-26T04:54:14.678Z,9.3
2019-05-26T04:55:21.878Z,9.4
2019-05-26T04:56:29.079Z,9.4
2019-05-26T04:57:36.014Z,9.4
2019-05-26T04:58:43.344Z,9.4
2019-05-26T04:59:50.281Z,9.4
2019-05-26T05:00:57.470Z,9.4
2019-05-26T05:02:04.399Z,9.4
2019-05-26T05:03:11.598Z,9.4
2019-05-26T05:04:18.801Z,9.5
2019-05-26T05:05:26.007Z,9.5
2019-05-26T05:06:32.929Z,9.5
2019-05-26T05:07:40.142Z,9.5
2019-05-26T05:08:47.070Z,9.6
2019-05-26T05:09:53.995Z,9.6
2019-05-26T05:11:01.130Z,9.6
2019-05-26T05:12:08.330Z,9.7
2019-05-26T05:13:15.003Z,9.7
2019-05-26T05:14:21.929Z,9.7
2019-05-26T05:15:29.126Z,9.8
2019-05-26T05:16:36.056Z,9.8
2019-05-26T05:17:43.262Z,9.9
2019-05-26T05:18:50.467Z,9.9
2019-05-26T05:19:57.688Z,10
2019-05-26T05:21:04.396Z,10.1
2019-05-26T05:22:11.052Z,10.1
2019-05-26T05:23:18.256Z,10.2
2019-05-26T05:24:25.454Z,10.3
2019-05-26T05:25:32.649Z,10.4
2019-05-26T05:26:39.600Z,10.5
2019-05-26T05:27:46.814Z,10.6
2019-05-26T05:28:54.019Z,10.7
2019-05-26T05:30:00.944Z,10.8
2019-05-26T05:31:08.212Z,11
2019-05-26T05:32:15.416Z,11.1
2019-05-26T05:33:22.343Z,11.2
2019-05-26T05:34:29.276Z,11.3
2019-05-26T05:35:36.487Z,11.4
2019-05-26T05:36:43.418Z,11.5
2019-05-26T05:37:50.621Z,11.6
2019-05-26T05:38:57.824Z,11.7
2019-05-26T05:40:04.759Z,11.8
2019-05-26T05:41:11.967Z,12
2019-05-26T05:42:19.195Z,12.2
2019-05-26T05:43:26.399Z,12.4
2019-05-26T05:44:33.609Z,12.5
2019-05-26T05:45:40.553Z,12.6
2019-05-26T05:46:47.744Z,12.8
2019-05-26T05:47:54.950Z,12.9
2019-05-26T05:49:02.189Z,13.1
2019-05-26T05:50:09.387Z,13.2
2019-05-26T05:51:16.592Z,13.4
2019-05-26T05:52:23.807Z,13.5
2019-05-26T05:53:30.739Z,13.7
2019-05-26T05:54:37.943Z,13.8
2019-05-26T05:55:45.146Z,14
2019-05-26T05:56:56.224Z,14.1
2019-05-26T05:58:03.162Z,14.3
2019-05-26T05:59:10.368Z,14.5
2019-05-26T06:00:17.574Z,14.7
2019-05-26T06:01:24.774Z,14.9
2019-05-26T06:02:31.983Z,15
2019-05-26T06:03:39.188Z,15.1
2019-05-26T06:04:46.399Z,15.1
2019-05-26T06:05:53.595Z,15.2
2019-05-26T06:07:00.520Z,15.3
2019-05-26T06:08:07.734Z,15.4
2019-05-26T06:09:14.714Z,15.5
2019-05-26T06:10:21.644Z,15.6
2019-05-26T06:11:28.850Z,15.7
2019-05-26T06:12:36.281Z,15.8
2019-05-26T06:13:43.474Z,16
2019-05-26T06:14:50.409Z,16
2019-05-26T06:15:57.661Z,16.1
2019-05-26T06:17:04.866Z,16.1
2019-05-26T06:18:12.066Z,16.1
2019-05-26T06:19:19.270Z,16
2019-05-26T06:20:26.474Z,15.9
2019-05-26T06:21:33.696Z,15.9
2019-05-26T06:22:40.901Z,16.1
2019-05-26T06:23:48.113Z,16.2
2019-05-26T06:24:55.331Z,16.3
2019-05-26T06:26:02.627Z,16.3
2019-05-26T06:27:09.840Z,16.3
2019-05-26T06:28:16.527Z,16.4
2019-05-26T06:29:23.731Z,16.5
2019-05-26T06:30:30.941Z,16.6
2019-05-26T06:31:38.168Z,16.6
2019-05-26T06:32:44.935Z,16.6
2019-05-26T06:33:52.152Z,16.6
2019-05-26T06:34:59.358Z,16.7
2019-05-26T06:36:06.566Z,16.9
2019-05-26T06:37:13.773Z,17
2019-05-26T06:38:20.979Z,17.1
2019-05-26T06:39:28.187Z,17
2019-05-26T06:40:35.185Z,17
2019-05-26T06:41:42.383Z,17.1
2019-05-26T06:42:49.589Z,17.2
2019-05-26T06:43:56.817Z,17.2
2019-05-26T06:45:04.022Z,17.3
2019-05-26T06:46:11.233Z,17.4
2019-05-26T06:47:18.447Z,17.5
2019-05-26T06:48:27.508Z,17.4
2019-05-26T06:49:34.722Z,17.4
2019-05-26T06:50:41.931Z,17.5
2019-05-26T06:51:49.137Z,17.4
2019-05-26T06:52:55.769Z,17.3
2019-05-26T06:54:02.971Z,17.4
2019-05-26T06:55:09.905Z,17.5
2019-05-26T06:56:17.114Z,17.6
2019-05-26T06:57:24.357Z,17.8
2019-05-26T06:58:31.571Z,17.8
2019-05-26T06:59:38.504Z,17.9
2019-05-26T07:00:45.729Z,18.1
2019-05-26T07:01:52.928Z,18.2
2019-05-26T07:02:59.585Z,18.2
2019-05-26T07:04:06.812Z,18.1
2019-05-26T07:05:17.596Z,18.1
2019-05-26T07:06:25.571Z,18.2
2019-05-26T07:07:32.781Z,18.3
2019-05-26T07:08:39.989Z,18.3
2019-05-26T07:09:47.226Z,18.3
2019-05-26T07:10:53.893Z,18.2
2019-05-26T07:12:01.313Z,18.2
2019-05-26T07:13:08.524Z,18.4
2019-05-26T07:14:15.737Z,18.5
2019-05-26T07:15:22.716Z,18.6
2019-05-26T07:16:39.039Z,18.7
2019-05-26T07:17:45.979Z,18.6
2019-05-26T07:18:53.191Z,18.7
2019-05-26T07:20:00.407Z,18.8
2019-05-26T07:21:07.610Z,18.9
2019-05-26T07:22:14.554Z,18.9
2019-05-26T07:23:21.778Z,19
2019-05-26T07:24:30.106Z,19.1
2019-05-26T07:25:37.061Z,19.1
2019-05-26T07:26:44.274Z,18.9
2019-05-26T07:27:51.496Z,19
2019-05-26T07:28:58.925Z,19.1
2019-05-26T07:30:05.861Z,19.1
2019-05-26T07:31:13.072Z,19.2
2019-05-26T07:32:20.283Z,19.3
2019-05-26T07:33:27.496Z,19.5
2019-05-26T07:34:34.708Z,19.6
2019-05-26T07:35:41.943Z,19.6
2019-05-26T07:36:49.139Z,19.6
2019-05-26T07:37:56.347Z,19.4
2019-05-26T07:39:03.557Z,19.5
2019-05-26T07:40:10.771Z,19.6
2019-05-26T07:41:17.976Z,19.6
2019-05-26T07:42:24.640Z,19.7
2019-05-26T07:43:31.584Z,19.6
2019-05-26T07:44:38.791Z,19.4
2019-05-26T07:45:45.999Z,19.6
2019-05-26T07:46:53.207Z,19.9
2019-05-26T07:48:00.425Z,20.2
2019-05-26T07:49:07.640Z,20.1
2019-05-26T07:50:14.852Z,20.1
2019-05-26T07:51:21.523Z,20.1
2019-05-26T07:52:28.506Z,20.2
2019-05-26T07:53:35.426Z,20.3
2019-05-26T07:54:42.635Z,20.4
2019-05-26T07:55:49.847Z,20.5
2019-05-26T07:56:57.058Z,20.5
2019-05-26T07:58:04.000Z,20.5
2019-05-26T07:59:11.218Z,20.7
2019-05-26T08:00:18.449Z,20.9
2019-05-26T08:01:36.659Z,20.8
2019-05-26T08:02:43.914Z,20.8
2019-05-26T08:03:50.955Z,20.7
2019-05-26T08:04:58.231Z,20.4
2019-05-26T08:06:05.445Z,20.4
2019-05-26T08:07:12.657Z,20.5
2019-05-26T08:08:19.871Z,20.3
2019-05-26T08:09:26.827Z,20.7
2019-05-26T08:10:34.047Z,21
2019-05-26T08:11:41.265Z,21.1
2019-05-26T08:12:48.479Z,21.1
2019-05-26T08:13:55.413Z,21.3
2019-05-26T08:15:02.645Z,21.3
2019-05-26T08:16:09.855Z,21.1
2019-05-26T08:17:17.063Z,21.2
2019-05-26T08:18:23.767Z,21.4
2019-05-26T08:19:31.132Z,21.3
2019-05-26T08:20:38.121Z,21.3
2019-05-26T08:21:45.061Z,21.4
2019-05-26T08:22:52.271Z,21.5
2019-05-26T08:23:59.260Z,21.6
2019-05-26T08:25:06.475Z,22
2019-05-26T08:26:13.423Z,21.8
2019-05-26T08:27:20.636Z,21.8
2019-05-26T08:28:27.642Z,21.8
2019-05-26T08:29:34.862Z,21.8
2019-05-26T08:30:42.080Z,21.8
2019-05-26T08:31:49.022Z,21.9
2019-05-26T08:32:56.231Z,21.9
2019-05-26T08:34:03.457Z,21.8
2019-05-26T08:35:10.670Z,21.8
2019-05-26T08:36:17.887Z,22
2019-05-26T08:37:25.122Z,21.9
2019-05-26T08:38:32.062Z,22
2019-05-26T08:39:39.280Z,22
2019-05-26T08:40:46.499Z,22
2019-05-26T08:41:53.710Z,22
2019-05-26T08:43:00.922Z,22.1
2019-05-26T08:44:08.131Z,22
2019-05-26T08:45:15.353Z,21.9
2019-05-26T08:46:22.299Z,21.9
2019-05-26T08:47:29.238Z,21.9
2019-05-26T08:48:36.454Z,22.2
2019-05-26T08:49:43.666Z,22.4
2019-05-26T08:50:50.878Z,21.9
2019-05-26T08:51:58.088Z,21.8
2019-05-26T08:53:05.351Z,21.4
2019-05-26T08:54:12.575Z,21.5
2019-05-26T08:55:19.807Z,21.5
2019-05-26T08:56:27.020Z,21.7
2019-05-26T08:57:33.965Z,22
2019-05-26T08:58:40.904Z,22.3
2019-05-26T08:59:48.116Z,22.4
2019-05-26T09:00:55.329Z,22.6
2019-05-26T09:02:02.543Z,22.8
2019-05-26T09:03:09.758Z,23.1
2019-05-26T09:04:16.974Z,23.1
2019-05-26T09:05:24.182Z,23.4
2019-05-26T09:06:31.396Z,23.4
2019-05-26T09:07:38.606Z,23.4
2019-05-26T09:08:45.540Z,23.3
2019-05-26T09:09:52.750Z,23.3
2019-05-26T09:10:59.459Z,23.4
2019-05-26T09:12:06.759Z,23.3
2019-05-26T09:13:13.958Z,23.3
2019-05-26T09:14:21.174Z,23.4
2019-05-26T09:15:32.249Z,23.3
2019-05-26T09:16:39.189Z,23.4
2019-05-26T09:17:46.401Z,23.5
2019-05-26T09:18:53.723Z,23.5
2019-05-26T09:20:00.990Z,23.3
2019-05-26T09:21:07.937Z,23.1
2019-05-26T09:22:15.167Z,23.1
2019-05-26T09:23:22.419Z,23.1
2019-05-26T09:24:29.626Z,23.2
2019-05-26T09:25:36.582Z,23.3
2019-05-26T09:26:43.510Z,23.6
2019-05-26T09:27:50.720Z,24
2019-05-26T09:28:57.666Z,24.1
2019-05-26T09:30:04.885Z,23.7
2019-05-26T09:31:12.115Z,23.2
2019-05-26T09:32:19.334Z,23.2
2019-05-26T09:33:26.566Z,23.3
2019-05-26T09:34:33.817Z,23.3
2019-05-26T09:35:41.018Z,23.1
2019-05-26T09:36:48.226Z,23.2
2019-05-26T09:37:55.442Z,23.2
2019-05-26T09:39:02.659Z,23.4
2019-05-26T09:40:09.875Z,23.7
2019-05-26T09:41:17.090Z,23.8
2019-05-26T09:42:24.298Z,24.2
2019-05-26T09:43:31.520Z,24.3
2019-05-26T09:44:38.740Z,24.6
2019-05-26T09:45:45.954Z,24.4
2019-05-26T09:46:52.913Z,24.5
2019-05-26T09:47:59.854Z,24.7
2019-05-26T09:49:06.793Z,24.2
2019-05-26T09:50:13.735Z,24.4
2019-05-26T09:51:20.951Z,24.7
2019-05-26T09:52:28.162Z,24.8
2019-05-26T09:53:35.386Z,24.5
2019-05-26T09:54:42.598Z,24
2019-05-26T09:55:49.816Z,24.3
2019-05-26T09:56:56.762Z,24.8
2019-05-26T09:58:03.443Z,25.1
2019-05-26T09:59:10.656Z,25.2
2019-05-26T10:00:17.875Z,25.2
2019-05-26T10:01:25.162Z,24.7
2019-05-26T10:02:32.109Z,24.5
2019-05-26T10:03:39.053Z,24.5
2019-05-26T10:04:46.265Z,24.4
2019-05-26T10:05:53.485Z,24.1
2019-05-26T10:07:00.717Z,24.1
2019-05-26T10:08:07.656Z,24.4
2019-05-26T10:09:14.873Z,24.4
2019-05-26T10:10:22.092Z,24.4
2019-05-26T10:11:29.315Z,24.5
2019-05-26T10:12:36.539Z,24.7
2019-05-26T10:13:43.747Z,24.9
2019-05-26T10:14:50.961Z,24.8
2019-05-26T10:15:58.168Z,24.2
2019-05-26T10:17:05.386Z,24.2
2019-05-26T10:18:12.633Z,24.4
2019-05-26T10:19:19.838Z,24.8
2019-05-26T10:20:27.060Z,24.9
2019-05-26T10:21:34.358Z,25.3
2019-05-26T10:22:41.578Z,25.6
2019-05-26T10:23:48.534Z,25.5
2019-05-26T10:24:59.800Z,25.5
2019-05-26T10:26:07.016Z,25.9
2019-05-26T10:27:14.244Z,25.7
2019-05-26T10:28:21.465Z,25.8
2019-05-26T10:29:28.679Z,26.1
2019-05-26T10:30:35.616Z,26
2019-05-26T10:31:42.832Z,25.4
2019-05-26T10:32:50.052Z,25.2
2019-05-26T10:33:56.719Z,25.1
2019-05-26T10:35:03.656Z,25.3
2019-05-26T10:36:10.621Z,25.3
2019-05-26T10:37:17.857Z,25.5
2019-05-26T10:38:25.059Z,25.5
2019-05-26T10:39:32.009Z,25.4
2019-05-26T10:40:38.950Z,25.3
2019-05-26T10:41:46.159Z,25.3
2019-05-26T10:42:53.379Z,25.1
2019-05-26T10:44:00.595Z,24.9
2019-05-26T10:45:07.804Z,24.5
2019-05-26T10:46:15.050Z,24.3
2019-05-26T10:47:22.006Z,24.5
2019-05-26T10:48:29.227Z,24.7
2019-05-26T10:49:36.214Z,24.8
2019-05-26T10:50:43.169Z,24.9
2019-05-26T10:51:50.111Z,25.1
2019-05-26T10:52:57.369Z,25.2
2019-05-26T10:54:04.582Z,25.4
2019-05-26T10:55:11.534Z,25.2
2019-05-26T10:56:18.751Z,25
2019-05-26T10:57:25.966Z,24.6
2019-05-26T10:58:32.909Z,24.7
2019-05-26T10:59:39.860Z,24.7
2019-05-26T11:00:47.070Z,24.6
2019-05-26T11:01:54.283Z,24.2
2019-05-26T11:03:01.497Z,24.3
2019-05-26T11:04:08.443Z,24.4
2019-05-26T11:05:15.383Z,24.4
2019-05-26T11:06:22.602Z,24.4
2019-05-26T11:07:29.858Z,24.5
2019-05-26T11:08:36.816Z,24.5
2019-05-26T11:09:43.762Z,24.5
2019-05-26T11:10:50.975Z,24.4
2019-05-26T11:11:57.910Z,24.1
2019-05-26T11:13:05.125Z,24
2019-05-26T11:14:12.345Z,24.2
2019-05-26T11:15:19.286Z,24.6
2019-05-26T11:16:26.232Z,25
2019-05-26T11:17:33.474Z,24.9
2019-05-26T11:18:40.424Z,24.9
2019-05-26T11:19:47.368Z,25.1
2019-05-26T11:20:54.579Z,25
2019-05-26T11:22:01.793Z,25
2019-05-26T11:23:08.734Z,25
2019-05-26T11:24:15.954Z,24.9
2019-05-26T11:25:23.165Z,25.1
2019-05-26T11:26:30.385Z,25.1
2019-05-26T11:27:37.608Z,24.9
2019-05-26T11:28:44.822Z,24.8
2019-05-26T11:29:51.817Z,24.8
2019-05-26T11:30:59.026Z,24.7
2019-05-26T11:32:06.258Z,24.7
2019-05-26T11:33:13.191Z,24.8
2019-05-26T11:34:20.472Z,25.1
2019-05-26T11:35:27.693Z,25.2
2019-05-26T11:36:34.655Z,25.2
2019-05-26T11:37:41.873Z,25.2
2019-05-26T11:38:48.821Z,25.1
2019-05-26T11:39:55.763Z,25.5
2019-05-26T11:41:02.708Z,25.7
2019-05-26T11:42:14.309Z,26
2019-05-26T11:43:22.042Z,26.2
2019-05-26T11:44:29.258Z,26.3
2019-05-26T11:45:36.198Z,26.2
2019-05-26T11:46:43.417Z,26
2019-05-26T11:47:50.634Z,25.8
2019-05-26T11:48:57.577Z,26
2019-05-26T11:50:04.525Z,26.2
2019-05-26T11:51:11.747Z,26.4
2019-05-26T11:52:20.879Z,26.6
2019-05-26T11:53:27.865Z,26.7
2019-05-26T11:54:35.302Z,26.7
2019-05-26T11:55:42.517Z,26.8
2019-05-26T11:56:49.739Z,26.8
2019-05-26T11:57:56.686Z,26.6
2019-05-26T11:59:03.907Z,26.6
2019-05-26T12:00:11.843Z,26.6
2019-05-26T12:01:23.626Z,26.6
2019-05-26T12:02:30.845Z,26.5
2019-05-26T12:03:38.058Z,26.4
2019-05-26T12:04:45.000Z,26.7
2019-05-26T12:05:52.224Z,26.8
2019-05-26T12:06:59.444Z,26.8
2019-05-26T12:08:10.316Z,26.6
2019-05-26T12:09:17.554Z,26.2
2019-05-26T12:10:24.772Z,26
2019-05-26T12:11:31.985Z,25.9
2019-05-26T12:12:38.668Z,25.6
2019-05-26T12:13:45.888Z,25.8
2019-05-26T12:14:53.117Z,25.7
2019-05-26T12:16:00.338Z,25.6
2019-05-26T12:17:07.274Z,25.6
2019-05-26T12:18:14.484Z,25.6
2019-05-26T12:19:21.702Z,26.2
2019-05-26T12:20:28.653Z,26.8
2019-05-26T12:21:35.867Z,27
2019-05-26T12:22:43.088Z,27.4
2019-05-26T12:23:54.560Z,27
2019-05-26T12:25:02.050Z,26.9
2019-05-26T12:26:09.272Z,27.4
2019-05-26T12:27:16.477Z,27.2
2019-05-26T12:28:23.699Z,27.1
2019-05-26T12:29:30.912Z,26.6
2019-05-26T12:30:37.848Z,26.6
2019-05-26T12:31:44.788Z,26.5
2019-05-26T12:32:51.458Z,27
2019-05-26T12:33:58.673Z,27
2019-05-26T12:35:05.613Z,27.2
2019-05-26T12:36:12.826Z,27.2
2019-05-26T12:37:20.041Z,27.1
2019-05-26T12:38:26.981Z,27.1
2019-05-26T12:39:33.935Z,26.9
2019-05-26T12:40:41.146Z,26.9
2019-05-26T12:41:48.084Z,26.2
2019-05-26T12:42:55.303Z,25.9
2019-05-26T12:44:02.518Z,26.1
2019-05-26T12:45:09.736Z,26.3
2019-05-26T12:46:16.978Z,26.7
2019-05-26T12:47:23.645Z,26.7
2019-05-26T12:48:30.592Z,26.8
2019-05-26T12:49:37.810Z,27.1
2019-05-26T12:50:44.800Z,27.1
2019-05-26T12:51:52.026Z,27
2019-05-26T12:52:58.962Z,26.8
2019-05-26T12:54:05.901Z,26.8
2019-05-26T12:55:13.132Z,26.7
2019-05-26T12:56:20.347Z,26.7
2019-05-26T12:57:27.626Z,27.1
2019-05-26T12:58:34.848Z,26.8
2019-05-26T12:59:42.061Z,26.6
2019-05-26T13:00:55.451Z,26.6
2019-05-26T13:02:02.751Z,26.7
2019-05-26T13:03:09.971Z,26.5
2019-05-26T13:04:17.197Z,26.9
2019-05-26T13:05:24.147Z,27.1
2019-05-26T13:06:31.365Z,27.3
2019-05-26T13:07:38.585Z,27.5
2019-05-26T13:08:45.801Z,27.6
2019-05-26T13:09:53.018Z,27.2
2019-05-26T13:10:59.959Z,26.6
2019-05-26T13:12:07.180Z,26.4
2019-05-26T13:13:14.384Z,26.2
2019-05-26T13:14:21.603Z,26.1
2019-05-26T13:15:28.823Z,25.8
2019-05-26T13:16:36.617Z,25.2
2019-05-26T13:17:43.833Z,24.9
2019-05-26T13:18:51.054Z,24.6
2019-05-26T13:19:58.271Z,25
2019-05-26T13:21:05.491Z,25.6
2019-05-26T13:22:12.704Z,25.9
2019-05-26T13:23:19.914Z,26.2
2019-05-26T13:24:26.851Z,26.2
2019-05-26T13:25:34.066Z,26.1
2019-05-26T13:26:41.283Z,26.2
2019-05-26T13:27:48.266Z,26.2
2019-05-26T13:28:55.475Z,26.2
2019-05-26T13:30:02.426Z,26.2
2019-05-26T13:31:09.370Z,26
2019-05-26T13:32:16.584Z,26.2
2019-05-26T13:33:23.535Z,26.2
2019-05-26T13:34:30.750Z,26.4
2019-05-26T13:35:41.971Z,26.8
2019-05-26T13:36:48.942Z,27.1
2019-05-26T13:37:56.155Z,27.2
2019-05-26T13:39:03.380Z,27
2019-05-26T13:40:10.330Z,26.9
2019-05-26T13:41:17.947Z,26.9
2019-05-26T13:42:25.242Z,26.7
2019-05-26T13:43:32.457Z,26.7
2019-05-26T13:44:39.670Z,27.2
2019-05-26T13:45:46.338Z,27.3
2019-05-26T13:46:53.553Z,27.4
2019-05-26T13:48:00.983Z,27.5
2019-05-26T13:49:08.198Z,27.3
2019-05-26T13:50:15.417Z,27.4
2019-05-26T13:51:22.637Z,27.5
2019-05-26T13:52:29.580Z,27.6
2019-05-26T13:53:36.808Z,27.4
2019-05-26T13:54:44.020Z,27.1
2019-05-26T13:55:51.246Z,27.2
2019-05-26T13:56:58.470Z,27.3
2019-05-26T13:58:05.413Z,27.2
2019-05-26T13:59:12.635Z,27.3
2019-05-26T14:00:19.853Z,27.3
2019-05-26T14:01:27.090Z,27
2019-05-26T14:02:34.307Z,26.4
2019-05-26T14:03:41.521Z,26.2
2019-05-26T14:04:48.763Z,25.7
2019-05-26T14:05:56.006Z,25.8
2019-05-26T14:07:03.218Z,26.1
2019-05-26T14:08:10.555Z,26.6
2019-05-26T14:09:17.773Z,27
2019-05-26T14:10:24.993Z,26.7
2019-05-26T14:11:31.931Z,26.6
2019-05-26T14:12:38.866Z,27
2019-05-26T14:13:46.103Z,27.1
2019-05-26T14:14:53.335Z,26.6
2019-05-26T14:16:00.551Z,26.4
2019-05-26T14:17:07.770Z,26.5
2019-05-26T14:18:18.566Z,26.3
2019-05-26T14:19:25.781Z,26.4
2019-05-26T14:20:32.991Z,26
2019-05-26T14:21:39.932Z,25.7
2019-05-26T14:22:46.874Z,25.7
2019-05-26T14:23:53.822Z,25.6
2019-05-26T14:25:01.040Z,25.9
2019-05-26T14:26:08.256Z,26.1
2019-05-26T14:27:15.476Z,25.9
2019-05-26T14:28:22.693Z,26
2019-05-26T14:29:29.643Z,26.3
2019-05-26T14:30:36.859Z,26.6
2019-05-26T14:31:44.078Z,26.7
2019-05-26T14:32:51.311Z,26.6
2019-05-26T14:33:58.276Z,26
2019-05-26T14:35:05.488Z,25.7
2019-05-26T14:36:12.741Z,25.5
2019-05-26T14:37:19.689Z,25.3
2019-05-26T14:38:43.606Z,24.7
2019-05-26T14:39:50.719Z,24.7
2019-05-26T14:40:57.674Z,24.8
2019-05-26T14:42:04.614Z,25
2019-05-26T14:43:11.843Z,25.2
2019-05-26T14:44:19.054Z,25.3
2019-05-26T14:45:26.278Z,25.3
2019-05-26T14:46:33.501Z,25.2
2019-05-26T14:47:40.453Z,25
2019-05-26T14:48:47.676Z,25.2
2019-05-26T14:49:54.895Z,25.5
2019-05-26T14:51:01.834Z,25.9
2019-05-26T14:52:08.772Z,26.5
2019-05-26T14:53:16.087Z,27
2019-05-26T14:54:23.296Z,27
2019-05-26T14:55:30.253Z,27
2019-05-26T14:56:37.474Z,27.3
2019-05-26T14:57:44.739Z,27.3
2019-05-26T14:58:51.966Z,27.3
2019-05-26T14:59:58.907Z,27
2019-05-26T15:01:05.857Z,26.7
2019-05-26T15:02:13.072Z,26.3
2019-05-26T15:03:20.286Z,25.9
2019-05-26T15:04:27.273Z,25.5
2019-05-26T15:05:37.844Z,24.9
2019-05-26T15:06:44.518Z,25
2019-05-26T15:07:51.771Z,25.3
2019-05-26T15:08:58.996Z,25.4
2019-05-26T15:10:06.218Z,25.5
2019-05-26T15:11:13.431Z,26
2019-05-26T15:12:20.370Z,26.2